Tiempo atmosférico en la estación meteorológica de A Pobra de Trives, Ourense (840 m.)



Fecha
DESCASC
Temp. máxima en grados centígrados (hora)
DESCASC
Temp. mínima en grados centígrados (hora)
DESCASC
Temp. media en grados centígrados
DESCASC
Racha de viento máxima en m/sg (hora)
DESCASC
Velocidad máxima media en intervalos de 10 minutos(hora)
DESCASC
Precipitaciones diarias en mm
DESCASC
Precipitaciones de 00:00 a 06:00 en mm
DESCASC
Precipitaciones de 06:00 a 12:00 en mm
DESCASC
Precipitaciones de 12:00 a 18:00 en mm
DESCASC
Precipitaciones de 18:00 a 24:00 en mm
DESCASC
17-08-2018 25.1 (17:30) 12.8 (06:50) 19 8.33 (19:10) 3.89 (00:40) 0 0 0 0 0
16-08-2018 26.1 (16:00) 13.4 (07:00) 19.8 11.39 (18:20) 4.72 (20:00) 0 0 0 0 0
15-08-2018 30.6 (18:20) 12.5 (07:20) 21.6 7.5 (17:00) 3.06 (17:00) 0 0 0 0 0
14-08-2018 30.1 (18:50) 9.6 (06:40) 19.9 7.5 (00:20) 3.33 (00:10) 0 0 0 0 0
13-08-2018 23.6 (16:30) 12.8 (05:10) 18.2 8.33 (17:40) 3.61 (14:10) 0 0 0 0 0
12-08-2018 25.9 (17:40) 12.6 (00:00) 19.3 9.44 (16:20) 4.17 (17:20) 0 0 0 0 0
11-08-2018 29.5 (17:50) 10.4 (00:00) 19.9 6.67 (17:50) 3.33 (17:50) 0 0 0 0 0
10-08-2018 25.8 (18:10) 6.8 (00:00) 16.3 7.5 (00:30) 3.89 (00:40) 0 0 0 0 0
09-08-2018 21.1 (17:00) 10.3 (00:00) 15.7 8.33 (17:10) 3.61 (17:20) 0.6 0.4 0.2 0 0
08-08-2018 24.8 (18:20) 11.4 (00:00) 18.1 11.39 (21:30) 5.56 (20:40) 0.6 0 0 0 0.6
07-08-2018 23.7 (16:10) 13.8 (00:00) 18.8 8.61 (16:50) 3.89 (00:10) 0 0 0 0 0
06-08-2018 -- (--) -- (--) -- -- (--) -- (--) -- -- -- 0 0
05-08-2018 -- (--) -- (--) -- -- (--) -- (--) -- 0 0 0 --
04-08-2018 34.7 (15:40) 18.5 (07:00) 26.6 7.22 (23:30) 3.61 (23:20) 0 0 0 0 0
03-08-2018 35.4 (17:20) 18.4 (00:00) 26.9 4.72 (18:10) 3.06 (03:40) 0 0 0 0 0
02-08-2018 35.2 (17:40) 15 (00:00) 25.1 4.72 (11:50) 3.33 (04:10) 0 0 0 0 0
01-08-2018 30 (18:30) 11.4 (06:50) 20.7 6.67 (00:10) 3.33 (12:20) 0 0 0 0 0
31-07-2018 24.3 (18:00) 14.8 (00:00) 19.5 8.33 (15:20) 3.89 (17:30) 0 0 0 0 0
30-07-2018 26.9 (15:20) 12.9 (00:00) 19.9 8.33 (15:50) 3.61 (16:10) 0 0 0 0 0
29-07-2018 24.6 (16:50) 10.9 (00:00) 17.8 9.72 (15:20) 4.72 (17:10) 0 0 0 0 0
28-07-2018 25.5 (16:50) 13.1 (00:00) 19.3 8.61 (18:10) 3.61 (20:00) 0 0 0 0 0
27-07-2018 23.6 (16:20) 13.5 (00:00) 18.6 9.72 (18:00) 3.89 (18:20) 0 0 0 0 0
26-07-2018 25.5 (19:10) 16.1 (00:00) 20.8 8.33 (18:30) 3.61 (17:20) 0 0 0 0 0
25-07-2018 27.9 (17:00) 14.9 (00:00) 21.4 8.61 (19:50) 3.89 (19:50) 0 0 0 0 0
24-07-2018 24.7 (19:10) 16.4 (00:00) 20.6 7.78 (20:50) 3.33 (16:40) 0 0 0 0 0
23-07-2018 30.6 (18:10) 13.6 (00:00) 22.1 8.61 (16:50) 3.89 (16:50) 0 0 0 0 0
22-07-2018 27.2 (18:10) 11.3 (00:00) 19.3 6.11 (12:20) 3.06 (12:00) 0 0 0 0 0
21-07-2018 21.8 (16:00) 8.9 (00:00) 15.3 6.67 (17:30) 3.06 (15:20) 0 0 0 0 0
20-07-2018 21.5 (14:50) 13.2 (00:00) 17.3 11.11 (16:20) 4.44 (17:20) 0 0 0 0 0

Gráficas

Temp. máximas Temp. mínimas Temp. medias Precipitaciones Rachas de viento máximas Velocidades máximas media en intervalos de 10 minutos

Datos horarios

Fecha y hora oficial Temperatura (ºC) Velocidad del viento (km/h) Dirección del viento Racha (km/h) Dirección de racha Precipitación (mm) Presión (hPa) Tendencia (hPa) Humedad (%)
2018-08-18 23:00:00 18.1 9 Oeste 19 Oeste 0 925.4 1.4 62
2018-08-18 22:00:00 19.8 9 Oeste 21 Oeste 0 924.8 0.8 56
2018-08-18 21:00:00 22.7 6 Noroeste 13 Noroeste 0 924.3 0.2 44
2018-08-18 20:00:00 25.6 3 Noroeste 12 Norte 0 924 -0.5 35
2018-08-18 19:00:00 29.3 3 Este 13 Nordeste 0 924 -0.9 16
2018-08-18 18:00:00 28.3 5 Sudeste 15 Este 0 924.1 -1.2 16
2018-08-18 17:00:00 27.1 5 Este 14 Nordeste 0 924.5 -0.9 17
2018-08-18 16:00:00 26.3 7 Este 18 Este 0 924.9 -1 25
2018-08-18 15:00:00 25.4 9 Este 20 Este 0 925.3 -0.9 20
2018-08-18 14:00:00 24.3 6 Este 15 Este 0 925.4 -0.8 29
2018-08-18 13:00:00 22 7 Este 18 Este 0 925.9 -0.2 43
2018-08-18 12:00:00 19.6 10 Este 19 Este 0 926.2 0.4 54
2018-08-18 11:00:00 17.2 9 Este 19 Este 0 926.2 0.4 63
2018-08-18 10:00:00 15.5 7 Este 16 Este 0 926.1 0.6 76
2018-08-18 09:00:00 13 8 Este 13 Este 0 925.8 0.4 80
2018-08-18 08:00:00 11.4 6 Este 11 Este 0 925.8 0.1 82
2018-08-18 07:00:00 11.7 4 Nordeste 15 Nordeste 0 925.5 -0.2 83
2018-08-18 06:00:00 12.4 5 Nordeste 11 Nordeste 0 925.4 -0.4 85
2018-08-18 05:00:00 12.5 3 Nordeste 8 Nordeste 0 925.7 -0.3 86
2018-08-18 04:00:00 12.3 3 Noroeste 6 Noroeste 0 925.7 -0.4 89
2018-08-18 03:00:00 12.5 3 Norte 12 Noroeste 0 925.8 -0.2 89
2018-08-18 02:00:00 12.9 9 Noroeste 14 Noroeste 0 926 0.4 87
2018-08-18 01:00:00 13.5 6 Noroeste 19 Oeste 0 926.1 1.1 83
2018-08-18 00:00:00 14.3 8 Oeste 21 Oeste 0 926 1.3 80
2018-08-17 23:00:00 15.2 10 Oeste 22 Oeste 0 925.6 1.2 77
2018-08-17 22:00:00 16.3 10 Noroeste 25 Oeste 0 925 0.7 75
2018-08-17 21:00:00 18.5 12 Oeste 27 Oeste 0 924.7 0.5 66
2018-08-17 20:00:00 20.7 12 Oeste 30 Oeste 0 924.4 -0.2 59
2018-08-17 19:00:00 24.1 12 Oeste 28 Noroeste 0 924.3 -0.9 49
2018-08-17 18:00:00 24.4 10 Noroeste 24 Oeste 0 924.2 -1.3 48
2018-08-17 17:00:00 25 10 Oeste 24 Oeste 0 924.6 -1.4 47
2018-08-17 16:00:00 24.3 9 Oeste 21 Oeste 0 925.2 -1.2 50
2018-08-17 15:00:00 23 8 Oeste 19 Oeste 0 925.5 -0.9 56
2018-08-17 14:00:00 21.9 6 Oeste 17 Oeste 0 926 -0.3 59
2018-08-17 13:00:00 20.6 8 Noroeste 19 Noroeste 0 926.4 0.3 62
2018-08-17 12:00:00 18.3 9 Oeste 18 Noroeste 0 926.4 0.9 71
2018-08-17 11:00:00 17.1 5 Noroeste 13 Norte 0 926.3 0.8 76
2018-08-17 10:00:00 15.7 6 Oeste 15 Oeste 0 926.1 1.1 82
2018-08-17 09:00:00 14.4 9 Oeste 16 Noroeste 0 925.5 0.7 90
2018-08-17 08:00:00 13.3 8 Oeste 16 Oeste 0 925.5 0.6 93
2018-08-17 07:00:00 12.9 6 Oeste 15 Oeste 0 925 0.2 92
2018-08-17 06:00:00 13.2 5 Oeste 15 Oeste 0 924.8 0 89
2018-08-17 05:00:00 13.4 7 Oeste 14 Oeste 0 924.9 -0.1 90
2018-08-17 04:00:00 13.8 7 Oeste 20 Oeste 0 924.8 -0.1 89
2018-08-17 03:00:00 14.4 10 Oeste 23 Oeste 0 924.8 0.3 88
2018-08-17 02:00:00 14.4 9 Oeste 26 Oeste 0 925 0.9 87
2018-08-17 01:00:00 15 10 Oeste 28 Oeste 0 924.9 1.1 85
2018-08-17 00:00:00 15.2 13 Oeste 27 Oeste 0 924.5 1.2 84
2018-08-16 23:00:00 16.2 13 Oeste 28 Oeste 0 924.1 1.1 80
2018-08-16 22:00:00 17 15 Oeste 29 Oeste 0 923.8 1.2 78
2018-08-16 21:00:00 18.2 12 Oeste 35 Noroeste 0 923.3 0.8 72
2018-08-16 20:00:00 20.2 17 Oeste 39 Oeste 0 923 0.4 65
2018-08-16 19:00:00 23.5 15 Oeste 41 Oeste 0 922.6 -0.3 54
2018-08-16 18:00:00 25.4 12 Noroeste 31 Oeste 0 922.5 -0.6 49
2018-08-16 17:00:00 25.9 14 Oeste 31 Oeste 0 922.6 -0.5 47
2018-08-16 16:00:00 26 10 Oeste 30 Oeste 0 922.9 -0.4 47
2018-08-16 15:00:00 24.7 13 Oeste 30 Oeste 0 923.1 -0.5 53
2018-08-16 14:00:00 23.3 9 Oeste 23 Noroeste 0 923.1 -0.4 61
2018-08-16 13:00:00 21.6 12 Noroeste 24 Noroeste 0 923.3 0.4 67
2018-08-16 12:00:00 20.3 11 Noroeste 26 Noroeste 0 923.6 1 73
2018-08-16 11:00:00 16.7 9 Oeste 22 Noroeste 0 923.5 1.2 88
2018-08-16 10:00:00 16.2 7 Noroeste 14 Oeste 0 922.9 0.9 90
2018-08-16 09:00:00 15 5 Noroeste 15 Oeste 0 922.6 0.8 92
2018-08-16 08:00:00 13.9 6 Noroeste 20 Noroeste 0 922.3 0.3 94
2018-08-16 07:00:00 13.4 11 Noroeste 21 Noroeste 0 922 0 87
2018-08-16 06:00:00 14.3 7 Noroeste 12 Noroeste 0 921.8 -0.6 83
2018-08-16 05:00:00 15.1 7 Noroeste 12 Noroeste 0 922 -0.7 81
2018-08-16 04:00:00 16 4 Oeste 25 Noroeste 0 922 -0.8 79
2018-08-16 03:00:00 16.7 10 Noroeste 20 Noroeste 0 922.4 -0.2 81
2018-08-16 02:00:00 17 8 Noroeste 14 Noroeste 0 922.7 0.3 81
2018-08-16 01:00:00 18.4 7 Oeste 17 Oeste 0 922.8 0.8 77
2018-08-16 00:00:00 19.3 8 Oeste 17 Oeste 0 922.6 1.1 74
2018-08-15 23:00:00 20.9 8 Oeste 19 Sudoeste 0 922.4 1.1 69
2018-08-15 22:00:00 22.2 9 Oeste 17 Oeste 0 922 0.5 61
2018-08-15 21:00:00 24.7 7 Oeste 22 Noroeste 0 921.5 -0.3 49
2018-08-15 20:00:00 26.8 7 Noroeste 21 Oeste 0 921.3 -0.8 44
2018-08-15 19:00:00 30.4 7 Oeste 19 Oeste 0 921.5 -1 28
2018-08-15 18:00:00 30.3 7 Noroeste 22 Oeste 0 921.8 -1 29
2018-08-15 17:00:00 29.6 11 Noroeste 27 Norte 0 922.1 -1.2 29
2018-08-15 16:00:00 29.9 9 Oeste 24 Oeste 0 922.5 -1 35
2018-08-15 15:00:00 29.3 8 Noroeste 19 Noroeste 0 922.8 -0.9 34
2018-08-15 14:00:00 27.7 3 Norte 12 Norte 0 923.3 -0.5 38
2018-08-15 13:00:00 25.6 6 Este 19 Sudeste 0 923.5 -0.4 44
2018-08-15 12:00:00 23.4 8 Este 15 Este 0 923.7 -0.2 51
2018-08-15 11:00:00 21.2 7 Este 13 Nordeste 0 923.8 0.1 60
2018-08-15 10:00:00 19.2 3 Norte 8 Norte 0 923.9 0.3 66
2018-08-15 09:00:00 16.1 4 Noroeste 10 Noroeste 0 923.9 0 78
2018-08-15 08:00:00 12.8 6 Noroeste 12 Noroeste 0 923.7 -0.4 86
2018-08-15 07:00:00 12.8 9 Noroeste 12 Noroeste 0 923.6 -0.9 84
2018-08-15 06:00:00 13.6 7 Noroeste 14 Noroeste 0 923.9 -0.9 82
2018-08-15 05:00:00 13.9 9 Noroeste 14 Noroeste 0 924.1 -0.7 84
2018-08-15 04:00:00 14.7 7 Noroeste 13 Noroeste 0 924.5 -0.3 81
2018-08-15 03:00:00 15.3 8 Noroeste 15 Noroeste 0 924.8 0.1 80
2018-08-15 02:00:00 16.2 8 Noroeste 12 Oeste 0 924.8 0 79
2018-08-15 01:00:00 17.2 8 Noroeste 16 Oeste 0 924.8 0.4 77
2018-08-15 00:00:00 18.3 8 Noroeste 24 Oeste 0 924.7 0.9 77
2018-08-14 23:00:00 19.7 8 Oeste 17 Noroeste 0 924.8 1.3 74
2018-08-14 22:00:00 21.5 10 Oeste 19 Oeste 0 924.4 0.7 67
2018-08-14 21:00:00 23.9 7 Oeste 21 Noroeste 0 923.8 -0.2 56
2018-08-14 20:00:00 26.3 10 Oeste 22 Oeste 0 923.5 -0.7 46
2018-08-14 19:00:00 29.6 8 Noroeste 17 Oeste 0 923.7 -1 34
2018-08-14 18:00:00 29.2 7 Este 19 Nordeste 0 924 -1 29
2018-08-14 17:00:00 28.4 7 Este 13 Este 0 924.2 -1 29
2018-08-14 16:00:00 27.4 6 Este 15 Nordeste 0 924.7 -0.9 33
2018-08-14 15:00:00 26.5 8 Este 17 Sudeste 0 925 -0.7 37
2018-08-14 14:00:00 24.9 7 Este 15 Este 0 925.2 -0.4 39
2018-08-14 13:00:00 23.1 6 Sudeste 15 Nordeste 0 925.6 0.2 46
2018-08-14 12:00:00 20.5 8 Sudeste 17 Este 0 925.7 0.6 57
2018-08-14 11:00:00 17.5 6 Este 15 Nordeste 0 925.6 0.6 73
2018-08-14 10:00:00 14.1 4 Este 10 Este 0 925.4 0.9 92
2018-08-14 09:00:00 11.8 4 Oeste 10 Noroeste 0 925.1 0.8 95
2018-08-14 08:00:00 10.6 6 Noroeste 10 Noroeste 0 925 0.8 94
2018-08-14 07:00:00 9.7 6 Noroeste 12 Noroeste 0 924.5 0.4 92
2018-08-14 06:00:00 10.2 5 Oeste 10 Noroeste 0 924.3 0.3 92
2018-08-14 05:00:00 10.7 7 Noroeste 13 Noroeste 0 924.2 0.1 90
2018-08-14 04:00:00 11.5 7 Noroeste 17 Noroeste 0 924.1 0 89
2018-08-14 03:00:00 12.5 7 Oeste 16 Oeste 0 924 0 91
2018-08-14 02:00:00 13 6 Oeste 12 Noroeste 0 924.1 0.3 90
2018-08-14 01:00:00 13.8 6 Noroeste 27 Oeste 0 924.1 0.6 87
2018-08-14 00:00:00 15 10 Oeste 27 Noroeste 0 924 0.9 84
2018-08-13 23:00:00 15.9 10 Oeste 23 Oeste 0 923.8 1 79
2018-08-13 22:00:00 16.8 9 Oeste 25 Noroeste 0 923.5 0.7 72
2018-08-13 21:00:00 18 10 Oeste 24 Oeste 0 923.1 0.4 65
2018-08-13 20:00:00 19.5 12 Oeste 30 Noroeste 0 922.8 0.1 59
2018-08-13 19:00:00 22.2 13 Noroeste 30 Oeste 0 922.8 -0.2 49
2018-08-13 18:00:00 23 11 Noroeste 30 Noroeste 0 922.7 -0.3 50
2018-08-13 17:00:00 23.2 13 Oeste 29 Oeste 0 922.7 -0.5 49
2018-08-13 16:00:00 23.1 13 Oeste 28 Oeste 0 923 -0.3 51
2018-08-13 15:00:00 22.8 11 Oeste 28 Noroeste 0 923 -0.3 50
2018-08-13 14:00:00 21.9 12 Noroeste 27 Oeste 0 923.2 0 50
2018-08-13 13:00:00 20.7 12 Oeste 29 Oeste 0 923.3 0.2 54
2018-08-13 12:00:00 20.1 9 Oeste 21 Oeste 0 923.3 0.6 56
2018-08-13 11:00:00 18.1 5 Oeste 14 Oeste 0 923.2 0.9 66
2018-08-13 10:00:00 14.7 5 Oeste 10 Sudoeste 0 923.1 1.3 78
2018-08-13 09:00:00 13.6 4 Oeste 11 Oeste 0 922.7 1.1 85
2018-08-13 08:00:00 13.2 4 Oeste 10 Oeste 0 922.3 0.8 88
2018-08-13 07:00:00 13.2 3 Noroeste 12 Oeste 0 921.8 0.1 90
2018-08-13 06:00:00 12.9 5 Oeste 18 Oeste 0 921.6 -0.4 89
2018-08-13 05:00:00 12.9 9 Oeste 17 Oeste 0 921.5 -0.7 89
2018-08-13 04:00:00 14 8 Oeste 13 Oeste 0 921.7 -0.5 87
2018-08-13 03:00:00 14.1 6 Oeste 17 Oeste 0 922 -0.4 90
2018-08-13 02:00:00 14.1 6 Noroeste 17 Oeste 0 922.2 0 87
2018-08-13 01:00:00 14.9 7 Oeste 15 Oeste 0 922.2 0.3 87
2018-08-13 00:00:00 15.8 7 Oeste 14 Oeste 0 922.4 0.9 86
2018-08-12 23:00:00 16.3 6 Noroeste 18 Oeste 0 922.2 0.8 83
2018-08-12 22:00:00 17.8 6 Oeste 21 Oeste 0 921.9 0.3 76
2018-08-12 21:00:00 19.8 8 Oeste 24 Noroeste 0 921.5 -0.2 69
2018-08-12 20:00:00 21.2 12 Oeste 27 Oeste 0 921.4 -0.5 64
2018-08-12 19:00:00 23.3 10 Oeste 31 Oeste 0 921.6 -0.7 56
2018-08-12 18:00:00 25 13 Oeste 33 Oeste 0 921.7 -1 44
2018-08-12 17:00:00 25.7 14 Oeste 34 Oeste 0 921.9 -1 40
2018-08-12 16:00:00 25.2 12 Oeste 28 Noroeste 0 922.3 -0.6 48
2018-08-12 15:00:00 23 6 Noroeste 20 Noroeste 0 922.7 -0.2 56
2018-08-12 14:00:00 22.8 8 Noroeste 24 Noroeste 0 922.9 0.2 57
2018-08-12 13:00:00 24.3 10 Oeste 20 Noroeste 0 922.9 0.2 50
2018-08-12 12:00:00 23.3 5 Este 10 Este 0 922.9 0.2 53
2018-08-12 11:00:00 20.7 3 Sudeste 10 Noroeste 0 922.7 0 58
2018-08-12 10:00:00 20.5 4 Este 13 Oeste 0 922.7 0.1 58
2018-08-12 09:00:00 16.2 8 Noroeste 14 Noroeste 0 922.7 0 66
2018-08-12 08:00:00 13 9 Noroeste 16 Noroeste 0 922.7 -0.3 75
2018-08-12 07:00:00 12.9 6 Noroeste 13 Noroeste 0 922.6 -0.8 76
2018-08-12 06:00:00 13 9 Noroeste 16 Noroeste 0 922.7 -1.2 80
2018-08-12 05:00:00 13.8 6 Oeste 15 Oeste 0 923 -1.4 80
2018-08-12 04:00:00 14.3 8 Noroeste 16 Oeste 0 923.4 -1.4 79
2018-08-12 03:00:00 15.2 8 Noroeste 18 Noroeste 0 923.9 -1.3 78
2018-08-12 02:00:00 16.7 6 Oeste 23 Oeste 0 924.4 -0.9 75
2018-08-12 01:00:00 16.9 9 Noroeste 17 Noroeste 0 924.8 -0.1 72
2018-08-12 00:00:00 18.5 9 Oeste 15 Oeste 0 925.2 0.7 67
2018-08-11 23:00:00 19.8 7 Oeste 16 Oeste 0 925.3 0.7 59
2018-08-11 22:00:00 20.8 3 Noroeste 19 Oeste 0 924.9 0 51
2018-08-11 21:00:00 23.8 9 Oeste 20 Oeste 0 924.5 -0.5 38
2018-08-11 20:00:00 25.9 7 Oeste 22 Oeste 0 924.6 -0.7 36
2018-08-11 19:00:00 28.9 11 Oeste 24 Oeste 0 924.9 -0.9 29
2018-08-11 18:00:00 29.5 11 Oeste 24 Oeste 0 925 -1.2 30
2018-08-11 17:00:00 29.2 8 Noroeste 22 Oeste 0 925.3 -1.3 30
2018-08-11 16:00:00 28.7 8 Noroeste 20 Noroeste 0 925.8 -1.2 33
2018-08-11 15:00:00 28 7 Norte 14 Norte 0 926.2 -1 36
2018-08-11 14:00:00 27 5 Nordeste 13 Nordeste 0 926.6 -0.7 37
2018-08-11 13:00:00 25.1 5 Este 14 Nordeste 0 927 -0.5 43
2018-08-11 12:00:00 22.5 7 Nordeste 16 Este 0 927.2 -0.3 50
2018-08-11 11:00:00 20.8 5 Este 10 Este 0 927.3 -0.1 57
2018-08-11 10:00:00 17.9 3 Norte 10 Noroeste 0 927.5 0.4 70
2018-08-11 09:00:00 14.1 6 Noroeste 11 Noroeste 0 927.5 0.3 79
2018-08-11 08:00:00 10.8 7 Noroeste 11 Noroeste 0 927.4 0 86
2018-08-11 07:00:00 10.5 8 Noroeste 13 Noroeste 0 927.1 -0.6 88
2018-08-11 06:00:00 11.1 6 Noroeste 12 Noroeste 0 927.2 -0.8 86
2018-08-11 05:00:00 11.6 8 Noroeste 11 Noroeste 0 927.4 -1 84
2018-08-11 04:00:00 12.1 6 Noroeste 15 Noroeste 0 927.7 -0.7 84
2018-08-11 03:00:00 12.5 8 Noroeste 15 Noroeste 0 928 -0.3 83
2018-08-11 02:00:00 13 9 Noroeste 15 Noroeste 0 928.4 0.3 83
2018-08-11 01:00:00 14 8 Noroeste 20 Noroeste 0 928.4 0.8 79
2018-08-11 00:00:00 15.5 7 Noroeste 23 Oeste 0 928.3 1.1 74
2018-08-10 23:00:00 17.1 10 Oeste 26 Oeste 0 928.1 1.1 72
2018-08-10 22:00:00 18.3 8 Oeste 15 Oeste 0 927.6 0.6 64
2018-08-10 21:00:00 20.6 7 Oeste 19 Oeste 0 927.2 0.2 51
2018-08-10 20:00:00 22.4 7 Oeste 23 Oeste 0 927 -0.1 45
2018-08-10 19:00:00 25.7 9 Oeste 26 Oeste 0 927 -0.4 37
2018-08-10 18:00:00 25.7 9 Oeste 23 Sudoeste 0 927 -0.7 37
2018-08-10 17:00:00 25.1 10 Norte 23 Norte 0 927.1 -0.8 42
2018-08-10 16:00:00 25.5 8 Noroeste 23 Noroeste 0 927.4 -0.8 44
2018-08-10 15:00:00 24.2 6 Noroeste 16 Norte 0 927.7 -0.7 38
2018-08-10 14:00:00 22.5 6 Nordeste 19 Este 0 927.9 -0.4 44
2018-08-10 13:00:00 20.6 9 Este 18 Sudeste 0 928.2 -0.1 48
2018-08-10 12:00:00 18.7 9 Este 23 Sudeste 0 928.4 0.3 52
2018-08-10 11:00:00 15.8 10 Este 19 Sudeste 0 928.3 0.5 65
2018-08-10 10:00:00 14.1 3 Norte 7 Nordeste 0 928.3 0.9 75
2018-08-10 09:00:00 10.7 2 Noroeste 11 Noroeste 0 928.1 0.7 86
2018-08-10 08:00:00 7.4 6 Noroeste 11 Noroeste 0 927.8 0.4 92
2018-08-10 07:00:00 7 5 Noroeste 10 Noroeste 0 927.4 0 91
2018-08-10 06:00:00 7.3 7 Noroeste 9 Noroeste 0 927.4 -0.4 90
2018-08-10 05:00:00 8 6 Noroeste 12 Noroeste 0 927.4 -0.6 89
2018-08-10 04:00:00 8.5 9 Noroeste 13 Noroeste 0 927.4 -0.6 89
2018-08-10 03:00:00 9.3 5 Oeste 20 Oeste 0 927.8 -0.2 87
2018-08-10 02:00:00 10 8 Noroeste 19 Noroeste 0 928 0.5 88
2018-08-10 01:00:00 11.1 10 Oeste 27 Oeste 0 928 1.4 84
2018-08-10 00:00:00 12 12 Oeste 23 Noroeste 0 928 1.8 82
2018-08-09 23:00:00 13 10 Oeste 19 Oeste 0 927.5 1.4 75
2018-08-09 22:00:00 14.2 6 Oeste 17 Oeste 0 926.6 0.6 65
2018-08-09 21:00:00 16.3 7 Noroeste 24 Noroeste 0 926.2 0.2 57
2018-08-09 20:00:00 17.7 9 Noroeste 23 Oeste 0 926.1 -0.1 52
2018-08-09 19:00:00 20.9 9 Noroeste 26 Noroeste 0 926 -0.4 44
2018-08-09 18:00:00 20.6 12 Noroeste 30 Noroeste 0 926 -0.3 44
2018-08-09 17:00:00 19.9 12 Noroeste 26 Noroeste 0 926.2 -0.2 45
2018-08-09 16:00:00 19 12 Noroeste 26 Noroeste 0 926.4 0.1 52
2018-08-09 15:00:00 20 10 Noroeste 24 Noroeste 0 926.3 0.2 44
2018-08-09 14:00:00 18.2 7 Noroeste 24 Noroeste 0 926.4 1 54
2018-08-09 13:00:00 18.7 9 Norte 25 Norte 0 926.3 1.4 53
2018-08-09 12:00:00 16.8 9 Noroeste 21 Noroeste 0 926.1 1.7 66
2018-08-09 11:00:00 13.9 5 Norte 14 Norte 0 925.4 1.8 76
2018-08-09 10:00:00 13.2 6 Noroeste 18 Noroeste 0.2 924.9 1.7 83
2018-08-09 09:00:00 12.3 7 Noroeste 19 Oeste 0 924.4 1.9 89
2018-08-09 08:00:00 11.7 5 Oeste 20 Noroeste 0 923.6 1.4 89
2018-08-09 07:00:00 11.7 9 Oeste 29 Noroeste 0 923.2 1.2 91
2018-08-09 06:00:00 12 7 Oeste 15 Oeste 0.2 922.5 0.7 92
2018-08-09 05:00:00 11.8 7 Oeste 17 Oeste 0.2 922.2 0.5 90
2018-08-09 04:00:00 11.7 4 Noroeste 16 Oeste 0 922 0.4 89
2018-08-09 03:00:00 11.3 9 Oeste 22 Oeste 0 921.8 0.3 91
2018-08-09 02:00:00 10.3 8 Noroeste 17 Oeste 0 921.7 0.7 90
2018-08-09 01:00:00 10.9 6 Oeste 12 Oeste 0 921.6 0.7 90
2018-08-09 00:00:00 11.7 5 Noroeste 11 Oeste 0 921.5 1.8 87
2018-08-08 23:00:00 13 5 Oeste 31 Oeste 0.2 921 2.3 86
2018-08-08 22:00:00 14 16 Oeste 41 Oeste 0.4 920.9 2.5 83
2018-08-08 21:00:00 17.7 14 Oeste 41 Oeste 0 919.7 1.1 70
2018-08-08 20:00:00 19.9 12 Oeste 31 Oeste 0 918.7 -0.1 61
2018-08-08 19:00:00 23.7 13 Oeste 31 Noroeste 0 918.4 -0.7 46
2018-08-08 18:00:00 24.5 13 Oeste 34 Noroeste 0 918.6 -0.8 36
2018-08-08 17:00:00 24.1 14 Noroeste 32 Noroeste 0 918.8 -1 40
2018-08-08 16:00:00 24.2 10 Noroeste 29 Oeste 0 919.1 -0.8 47
2018-08-08 15:00:00 24.3 10 Noroeste 26 Oeste 0 919.4 -0.7 52
2018-08-08 14:00:00 23.5 9 Noroeste 20 Oeste 0 919.8 -0.2 51
2018-08-08 13:00:00 22.8 10 Oeste 22 Oeste 0 919.9 -0.5 54
2018-08-08 12:00:00 20.6 4 Nordeste 12 Noroeste 0 920.1 -0.3 54
2018-08-08 11:00:00 16.9 5 Este 12 Sudeste 0 920 -0.1 75
2018-08-08 10:00:00 13.3 3 Sudeste 8 Noroeste 0 920.4 0.4 90
2018-08-08 09:00:00 11.9 6 Noroeste 10 Norte 0 920.4 0.3 89
2018-08-08 08:00:00 11.7 4 Noroeste 10 Noroeste 0 920.1 -0.5 89
2018-08-08 07:00:00 11.8 4 Noroeste 12 Noroeste 0 920 -0.7 90
2018-08-08 06:00:00 11.7 4 Noroeste 10 Oeste 0 920.1 -0.8 91
2018-08-08 05:00:00 11.8 4 Noroeste 15 Oeste 0 920.6 -0.7 88
2018-08-08 04:00:00 12.9 6 Oeste 12 Oeste 0 920.7 -0.9 90
2018-08-08 03:00:00 12.6 6 Noroeste 18 Oeste 0 920.9 -0.8 89
2018-08-08 02:00:00 13.5 8 Oeste 23 Oeste 0 921.3 -0.5 89
2018-08-08 01:00:00 13.7 8 Oeste 15 Oeste 0 921.6 0.4 87
2018-08-08 00:00:00 13.9 8 Oeste 15 Oeste 0 921.7 0.7 85
2018-08-07 23:00:00 15.2 4 Oeste 20 Oeste 0 921.8 1 76
2018-08-07 22:00:00 16.5 8 Oeste 21 Noroeste 0 921.2 0.4 67
2018-08-07 21:00:00 18.2 11 Oeste 25 Oeste 0 921 0 59
2018-08-07 20:00:00 19.8 13 Oeste 26 Oeste 0 920.8 -0.2 54
2018-08-07 19:00:00 23 10 Oeste 26 Noroeste 0 920.8 -0.6 41
2018-08-07 18:00:00 23.3 11 Noroeste 29 Oeste 0 921 -0.6 39
2018-08-07 17:00:00 23.1 12 Oeste 31 Oeste 0 921 -0.6 44
2018-08-07 16:00:00 23.4 9 Oeste 26 Oeste 0 921.4 -0.2 48
2018-08-07 15:00:00 22.3 12 Oeste 27 Noroeste 0 921.6 0 52
2018-08-07 14:00:00 22.4 8 Noroeste 21 Noroeste 0 921.6 0 50
2018-08-07 13:00:00 18.7 4 Nordeste 14 Noroeste 0 921.6 0.2 64
2018-08-07 12:00:00 17.9 6 Noroeste 17 Oeste 0 921.6 0.4 66
2018-08-07 11:00:00 16.8 6 Noroeste 19 Noroeste 0 921.6 0.8 73
2018-08-07 10:00:00 17.5 8 Noroeste 17 Noroeste 0 921.4 1 68
2018-08-07 09:00:00 15.2 7 Oeste 18 Noroeste 0 921.2 1 81
2018-08-07 08:00:00 14.6 9 Oeste 20 Oeste 0 920.8 0.6 83
2018-08-07 07:00:00 15 6 Oeste 16 Oeste 0 920.4 0.3 81
2018-08-07 06:00:00 15.1 6 Noroeste 14 Oeste 0 920.2 -0.6 78
2018-08-07 05:00:00 15.3 4 Noroeste 14 Oeste 0 920.2 -1 77
2018-08-07 04:00:00 15.2 4 Norte 15 Oeste 0 920.1 -1.1 77
2018-08-07 03:00:00 15.1 5 Noroeste 12 Noroeste 0 920.8 -0.2 77
2018-08-07 02:00:00 15.3 4 Noroeste 20 Oeste 0 921.2 0.5 76
2018-08-07 01:00:00 16.1 9 Oeste 30 Oeste 0 921.2 1.4 71
2018-08-07 00:00:00 16.8 15 Oeste 28 Oeste 0 921 1.9 74
2018-08-06 23:00:00 18.1 14 Oeste 29 Oeste 0 920.7 2.2 76
2018-08-06 22:00:00 20.2 6 Noroeste 23 Oeste 0 919.8 1.3 70
2018-08-06 21:00:00 23.5 9 Oeste 32 Oeste 0 919.1 0.2 59
2018-08-06 20:00:00 27.3 13 Oeste 31 Oeste 0 918.5 -0.9 47
2018-08-06 19:00:00 32.4 10 Oeste 28 Sudoeste 0 918.5 -1.6 34
2018-08-06 18:00:00 34.9 6 Oeste 28 Oeste 0 918.9 -1.7 21
2018-08-06 17:00:00 34.8 13 Sudoeste 30 Oeste 0 919.4 -1.7 21
2018-08-06 16:00:00 34.8 11 Sudoeste 27 Oeste 0 920.1 -1.5 22
2018-08-06 15:00:00 33.9 6 Oeste 13 Sudoeste 0 920.6 -1.4 26
2018-08-06 14:00:00 31.9 6 Noroeste 11 Noroeste 0 921.1 -1.3 30
2018-08-06 13:00:00 29.8 5 Sudeste 10 Este 0 921.6 -- 36
2018-08-06 12:00:00 28 4 Este 11 Este 0 922 -- 40
2018-08-06 11:00:00 25.8 4 Este -- -- -- 922.4 -- 46
2018-08-06 10:00:00 -- -- -- -- -- -- -- -- --
2018-08-06 09:00:00 -- -- -- -- -- -- -- -- --
2018-08-06 08:00:00 -- -- -- -- -- -- -- -- --
2018-08-06 07:00:00 -- -- -- -- -- -- -- -- --
2018-08-06 06:00:00 -- -- -- -- -- -- -- -- --
2018-08-06 05:00:00 -- -- -- -- -- -- -- -- --
2018-08-06 04:00:00 -- -- -- -- -- -- -- -- --
2018-08-06 03:00:00 -- -- -- -- -- -- -- -- --
2018-08-06 02:00:00 -- -- -- -- -- -- -- -- --
2018-08-06 01:00:00 -- -- -- -- -- -- -- -- --
2018-08-06 00:00:00 -- -- -- -- -- -- -- -- --
2018-08-05 23:00:00 -- -- -- -- -- -- -- -- --
2018-08-05 22:00:00 -- -- -- -- -- -- -- -- --
2018-08-05 21:00:00 -- -- -- -- -- -- -- -- --
2018-08-05 20:00:00 -- -- -- -- -- -- -- -- --
2018-08-05 19:00:00 -- -- -- -- -- -- -- -- --
2018-08-05 18:00:00 34.2 5 Noroeste 10 Norte 0 923.7 -0.9 26
2018-08-05 17:00:00 34 3 Nordeste 8 Sudeste 0 923.9 -1.1 23
2018-08-05 16:00:00 33.2 4 Este 8 Sudeste 0 924.2 -1.2 23
2018-08-05 15:00:00 31.5 4 Este 10 Nordeste 0 924.6 -0.9 34
2018-08-05 14:00:00 30.2 4 Sudeste 10 Este 0 925 -0.5 38
2018-08-05 13:00:00 28.1 4 Nordeste 11 Sudeste 0 925.4 -0.3 40
2018-08-05 12:00:00 26.3 4 Este 11 Este 0 925.5 -0.1 40
2018-08-05 11:00:00 24.5 4 Este 8 Este 0 925.5 0.1 44
2018-08-05 10:00:00 21.7 4 Noroeste 9 Noroeste 0 925.7 0.6 46
2018-08-05 09:00:00 17.8 6 Noroeste 9 Noroeste 0 925.6 0.6 58
2018-08-05 08:00:00 15.5 7 Noroeste 10 Noroeste 0 925.4 0.4 55
2018-08-05 07:00:00 15.8 8 Noroeste 12 Noroeste 0 925.1 0 51
2018-08-05 06:00:00 16.9 8 Noroeste 13 Noroeste 0 925 -0.4 49
2018-08-05 05:00:00 17.8 9 Noroeste 12 Noroeste 0 925 -0.6 45
2018-08-05 04:00:00 18.2 9 Noroeste 15 Noroeste 0 925.1 -0.8 48
2018-08-05 03:00:00 18.9 9 Noroeste 14 Noroeste 0 925.4 -0.5 49
2018-08-05 02:00:00 19.6 10 Noroeste 14 Noroeste 0 925.6 -0.3 55
2018-08-05 01:00:00 21.7 8 Noroeste 20 Oeste 0 925.9 0.3 50
2018-08-05 00:00:00 22.4 9 Noroeste 26 Oeste 0 925.9 0.4 57
2018-08-04 23:00:00 24.2 12 Oeste 23 Noroeste 0 925.9 0.6 57
2018-08-04 22:00:00 25.9 10 Oeste 19 Sudoeste 0 925.6 0.1 52
2018-08-04 21:00:00 28.3 10 Oeste 19 Oeste 0 925.5 -0.1 44
2018-08-04 20:00:00 30.8 4 Noroeste 21 Oeste 0 925.3 -0.4 47
2018-08-04 19:00:00 33.3 7 Oeste 19 Oeste 0 925.5 -0.5 38
2018-08-04 18:00:00 33.8 9 Oeste 20 Oeste 0 925.6 -0.6 31
2018-08-04 17:00:00 34.4 11 Oeste 22 Noroeste 0 925.7 -0.7 28
2018-08-04 16:00:00 34.4 9 Noroeste 18 Noroeste 0 926 -0.6 29
2018-08-04 15:00:00 34.1 6 Noroeste 14 Noroeste 0 926.2 -0.7 29
2018-08-04 14:00:00 32.4 5 Sudeste 10 Sudeste 0 926.4 -0.6 35
2018-08-04 13:00:00 30.6 4 Este 10 Sudeste 0 926.6 -0.4 38
2018-08-04 12:00:00 28.3 4 Nordeste 9 Este 0 926.9 0 41
2018-08-04 11:00:00 26.3 4 Este 9 Este 0 927 0.5 53
2018-08-04 10:00:00 24 3 Noroeste 10 Noroeste 0 927 0.9 52
2018-08-04 09:00:00 20.2 4 Noroeste 11 Noroeste 0 926.9 0.9 68
2018-08-04 08:00:00 18.6 8 Noroeste 13 Noroeste 0 926.5 0.7 67
2018-08-04 07:00:00 18.5 8 Noroeste 13 Noroeste 0 926.1 0.3 69
2018-08-04 06:00:00 19.4 9 Noroeste 12 Noroeste 0 926 -0.2 68
2018-08-04 05:00:00 20.1 8 Noroeste 13 Oeste 0 925.8 -0.6 67
2018-08-04 04:00:00 20.6 9 Noroeste 13 Noroeste 0 925.8 -0.8 66
2018-08-04 03:00:00 21.2 8 Noroeste 14 Oeste 0 926.2 -0.5 66
2018-08-04 02:00:00 21.8 8 Noroeste 18 Oeste 0 926.4 -0.2 63
2018-08-04 01:00:00 22.4 7 Noroeste 15 Noroeste 0 926.6 0.5 63
2018-08-04 00:00:00 23.2 9 Noroeste 16 Noroeste 0 926.7 1 63
2018-08-03 23:00:00 24.5 7 Noroeste 15 Oeste 0 926.6 1 60
2018-08-03 22:00:00 26 8 Noroeste 14 Noroeste 0 926.1 0.5 61
2018-08-03 21:00:00 28.9 6 Noroeste 11 Oeste 0 925.7 0 55
2018-08-03 20:00:00 32 3 Oeste 10 Oeste 0 925.6 -0.1 41
2018-08-03 19:00:00 34.2 4 Noroeste 17 Oeste 0 925.6 -0.3 34
2018-08-03 18:00:00 35.2 5 Noroeste 13 Norte 0 925.7 -0.2 32
2018-08-03 17:00:00 35.2 5 Norte 13 Norte 0 925.7 -0.2 26
2018-08-03 16:00:00 35.3 4 Noroeste 14 Oeste 0 925.9 -0.3 26
2018-08-03 15:00:00 34.2 5 Sudoeste 12 Sudoeste 0 925.9 -0.1 32
2018-08-03 14:00:00 32.2 5 Este 10 Sudeste 0 925.9 0 35
2018-08-03 13:00:00 30.9 4 Este 10 Norte 0 926.2 0.2 41
2018-08-03 12:00:00 29.1 5 Este 8 Este 0 926 0.2 43
2018-08-03 11:00:00 26.7 5 Este 8 Sudeste 0 925.9 0.4 53
2018-08-03 10:00:00 24.1 5 Noroeste 10 Noroeste 0 926 0.8 59
2018-08-03 09:00:00 20.3 8 Noroeste 12 Noroeste 0 925.8 0.8 67
2018-08-03 08:00:00 18.9 7 Noroeste 11 Oeste 0 925.5 0.6 67
2018-08-03 07:00:00 18.6 8 Noroeste 13 Noroeste 0 925.2 0.4 67
2018-08-03 06:00:00 19.1 9 Noroeste 16 Noroeste 0 925 0 65
2018-08-03 05:00:00 19.5 8 Noroeste 15 Noroeste 0 924.9 0 63
2018-08-03 04:00:00 20.4 9 Noroeste 16 Noroeste 0 924.8 0 59
2018-08-03 03:00:00 20.6 10 Noroeste 15 Noroeste 0 925 0.2 60
2018-08-03 02:00:00 21.1 9 Noroeste 15 Noroeste 0 924.9 0.2 59
2018-08-03 01:00:00 21.7 9 Noroeste 15 Oeste 0 924.8 0.9 58
2018-08-03 00:00:00 22.8 9 Noroeste 17 Noroeste 0 924.8 1.2 55
2018-08-02 23:00:00 23.8 6 Noroeste 15 Noroeste 0 924.7 1.3 55
2018-08-02 22:00:00 25.8 7 Noroeste 10 Noroeste 0 923.9 0.6 53
2018-08-02 21:00:00 28.8 4 Sudoeste 9 Oeste 0 923.6 0.3 45
2018-08-02 20:00:00 31.8 3 Oeste 14 Noroeste 0 923.4 0.1 38
2018-08-02 19:00:00 34.4 4 Norte 14 Noroeste 0 923.3 -0.2 26
2018-08-02 18:00:00 35.1 7 Norte 15 Norte 0 923.3 -0.4 24
2018-08-02 17:00:00 34.5 5 Nordeste 13 Este 0 923.3 -0.7 22
2018-08-02 16:00:00 33.5 5 Este 16 Este 0 923.5 -0.8 32
2018-08-02 15:00:00 32.4 5 Nordeste 14 Este 0 923.7 -0.8 38
2018-08-02 14:00:00 30.6 6 Este 15 Este 0 924 -0.4 42
2018-08-02 13:00:00 29.2 6 Este 16 Este 0 924.3 -0.1 42
2018-08-02 12:00:00 27 9 Este 17 Este 0 924.5 0.3 49
2018-08-02 11:00:00 25 8 Este 14 Nordeste 0 924.4 0.5 57
2018-08-02 10:00:00 22.5 4 Nordeste 13 Noroeste 0 924.4 0.8 70
2018-08-02 09:00:00 18.8 5 Noroeste 12 Noroeste 0 924.2 0.7 77
2018-08-02 08:00:00 16.1 8 Noroeste 12 Norte 0 923.9 0.5 86
2018-08-02 07:00:00 15.7 6 Noroeste 11 Noroeste 0 923.6 0.4 88
2018-08-02 06:00:00 15.1 6 Noroeste 11 Noroeste 0 923.5 0.1 88
2018-08-02 05:00:00 15.4 10 Noroeste 16 Noroeste 0 923.4 -0.2 84
2018-08-02 04:00:00 15.7 10 Noroeste 15 Noroeste 0 923.2 -0.4 84
2018-08-02 03:00:00 16.4 9 Noroeste 13 Noroeste 0 923.4 -0.2 85
2018-08-02 02:00:00 17.2 8 Noroeste 13 Noroeste 0 923.6 0 84
2018-08-02 01:00:00 18.1 10 Noroeste 15 Noroeste 0 923.6 0.7 83
2018-08-02 00:00:00 19 8 Noroeste 18 Noroeste 0 923.6 1 81
2018-08-01 23:00:00 21 8 Oeste 20 Oeste 0 923.6 1.1 78
2018-08-01 22:00:00 22.5 7 Oeste 15 Oeste 0 922.9 0.4 72
2018-08-01 21:00:00 24.7 6 Oeste 15 Oeste 0 922.6 0 61
2018-08-01 20:00:00 26.9 9 Oeste 18 Oeste 0 922.5 -0.2 49
2018-08-01 19:00:00 29.7 10 Oeste 22 Noroeste 0 922.5 -0.6 41
2018-08-01 18:00:00 29.8 9 Oeste 22 Oeste 0 922.6 -0.7 42
2018-08-01 17:00:00 29.6 9 Oeste 21 Noroeste 0 922.7 -1 45
2018-08-01 16:00:00 29 5 Norte 15 Noroeste 0 923.1 -1 39
2018-08-01 15:00:00 27.2 4 Nordeste 13 Nordeste 0 923.3 -1 44
2018-08-01 14:00:00 25.4 5 Este 16 Este 0 923.7 -0.7 50
2018-08-01 13:00:00 23.4 8 Este 20 Nordeste 0 924.1 -0.2 54
2018-08-01 12:00:00 21.1 10 Este 18 Sudeste 0 924.3 0.2 67
2018-08-01 11:00:00 18.3 7 Este 14 Este 0 924.4 0.6 77
2018-08-01 10:00:00 14.3 4 Este 10 Sudeste 0 924.3 0.9 93
2018-08-01 09:00:00 12 3 Oeste 10 Noroeste 0 924.1 0.4 94
2018-08-01 08:00:00 11.5 6 Noroeste 11 Noroeste 0 923.8 -0.1 94
2018-08-01 07:00:00 11.5 6 Noroeste 10 Noroeste 0 923.4 -0.5 94
2018-08-01 06:00:00 11.8 4 Noroeste 8 Noroeste 0 923.7 -0.3 94
2018-08-01 05:00:00 12 5 Noroeste 12 Noroeste 0 923.9 -0.5 91
2018-08-01 04:00:00 12.1 6 Noroeste 13 Noroeste 0 923.9 -0.6 91
2018-08-01 03:00:00 13.3 6 Oeste 15 Noroeste 0 924 -0.8 93
2018-08-01 02:00:00 12.8 6 Oeste 16 Noroeste 0 924.4 -0.4 91
2018-08-01 01:00:00 13.8 8 Oeste 24 Noroeste 0 924.5 0.5 89
2018-08-01 00:00:00 14.9 11 Oeste 26 Noroeste 0 924.8 1.2 87
2018-07-31 23:00:00 15.9 9 Oeste 24 Oeste 0 924.8 1.4 82
2018-07-31 22:00:00 17.6 9 Oeste 21 Oeste 0 924 0.4 72
2018-07-31 21:00:00 19.6 7 Oeste 23 Oeste 0 923.6 0.1 62
2018-07-31 20:00:00 21.4 10 Oeste 27 Noroeste 0 923.4 -0.4 54
2018-07-31 19:00:00 23.8 10 Noroeste 28 Noroeste 0 923.6 -0.4 48
2018-07-31 18:00:00 24.1 12 Noroeste 28 Oeste 0 923.5 -0.9 50
2018-07-31 17:00:00 23.6 12 Noroeste 27 Oeste 0 923.8 -0.7 55
2018-07-31 16:00:00 22.6 11 Oeste 30 Noroeste 0 924 -0.7 58
2018-07-31 15:00:00 21.9 9 Oeste 26 Oeste 0 924.4 -0.5 61
2018-07-31 14:00:00 22.4 10 Oeste 19 Oeste 0 924.5 -0.4 61
2018-07-31 13:00:00 20.9 5 Este 13 Este 0 924.7 -0.1 66
2018-07-31 12:00:00 19.1 4 Norte 10 Oeste 0 924.9 0.5 73
2018-07-31 11:00:00 17.8 5 Oeste 14 Noroeste 0 924.9 0.8 77
2018-07-31 10:00:00 16.5 7 Noroeste 18 Oeste 0 924.8 1.2 85
2018-07-31 09:00:00 15.1 9 Oeste 16 Oeste 0 924.4 0.9 89
2018-07-31 08:00:00 14.9 8 Oeste 17 Noroeste 0 924.1 0.5 90
2018-07-31 07:00:00 15.5 6 Oeste 14 Oeste 0 923.6 -0.2 91
2018-07-31 06:00:00 15.9 6 Noroeste 13 Oeste 0 923.5 -0.5 92
2018-07-31 05:00:00 16.2 5 Noroeste 13 Oeste 0 923.6 -0.7 91
2018-07-31 04:00:00 16.8 6 Oeste 14 Noroeste 0 923.8 -0.6 89
2018-07-31 03:00:00 17.1 5 Noroeste 9 Noroeste 0 924 -0.3 86
2018-07-31 02:00:00 17.4 3 Oeste 12 Oeste 0 924.3 0 82
2018-07-31 01:00:00 17.2 4 Oeste 13 Noroeste 0 924.4 0.8 79
2018-07-31 00:00:00 16.7 4 Oeste 19 Oeste 0 924.3 0.9 81
2018-07-30 23:00:00 17 8 Oeste 21 Oeste 0 924.3 1.1 79
2018-07-30 22:00:00 18.1 12 Oeste 22 Oeste 0 923.6 0.7 78
2018-07-30 21:00:00 19.4 12 Oeste 28 Oeste 0 923.4 0.7 76
2018-07-30 20:00:00 20.8 12 Oeste 30 Oeste 0 923.2 0.6 71
2018-07-30 19:00:00 22.6 12 Noroeste 27 Sudoeste 0 922.9 0.1 63
2018-07-30 18:00:00 24.9 10 Oeste 26 Oeste 0 922.7 -0.2 55
2018-07-30 17:00:00 24.6 9 Noroeste 28 Oeste 0 922.6 -0.5 58
2018-07-30 16:00:00 24.7 11 Oeste 30 Noroeste 0 922.8 -0.6 55
2018-07-30 15:00:00 26.6 11 Oeste 28 Sudoeste 0 922.9 -0.8 42
2018-07-30 14:00:00 25.3 10 Oeste 26 Oeste 0 923.1 -0.6 51
2018-07-30 13:00:00 22.3 8 Noroeste 22 Oeste 0 923.4 -0.3 65
2018-07-30 12:00:00 20.2 4 Sudeste 9 Sudeste 0 923.7 0.4 69
2018-07-30 11:00:00 18.1 4 Este 13 Este 0 923.7 0.6 72
2018-07-30 10:00:00 16.5 2 Este 6 Este 0 923.7 0.6 79
2018-07-30 09:00:00 15.1 4 Noroeste 10 Noroeste 0 923.3 0.1 86
2018-07-30 08:00:00 14.1 3 Noroeste 9 Noroeste 0 923.1 -0.5 89
2018-07-30 07:00:00 13.7 2 Noroeste 10 Noroeste 0 923.1 -0.6 88
2018-07-30 06:00:00 13.2 3 Noroeste 8 Oeste 0 923.2 -0.9 88
2018-07-30 05:00:00 13 4 Oeste 14 Oeste 0 923.6 -0.6 88
2018-07-30 04:00:00 13.4 4 Oeste 11 Noroeste 0 923.7 -0.8 85
2018-07-30 03:00:00 14.5 3 Sudoeste 13 Oeste 0 924.1 -0.3 85
2018-07-30 02:00:00 14.5 4 Sudoeste 16 Oeste 0 924.2 0 85
2018-07-30 01:00:00 14.5 5 Oeste 12 Oeste 0 924.5 1 88
2018-07-30 00:00:00 14.6 7 Oeste 20 Oeste 0 924.4 1.1 86
2018-07-29 23:00:00 15.4 10 Oeste 27 Oeste 0 924.2 1.4 82
2018-07-29 22:00:00 16.5 12 Oeste 24 Noroeste 0 923.5 0.8 77
2018-07-29 21:00:00 18.4 12 Oeste 26 Noroeste 0 923.3 0.8 69
2018-07-29 20:00:00 20.3 13 Oeste 32 Oeste 0 922.8 0.4 63
2018-07-29 19:00:00 23.3 13 Oeste 30 Noroeste 0 922.7 0 54
2018-07-29 18:00:00 24.2 11 Noroeste 33 Oeste 0 922.5 0 48
2018-07-29 17:00:00 24.4 16 Oeste 35 Oeste 0 922.4 -0.2 46
2018-07-29 16:00:00 23.9 13 Oeste 35 Oeste 0 922.7 0.1 49
2018-07-29 15:00:00 23 12 Noroeste 27 Oeste 0 922.5 0 49
2018-07-29 14:00:00 22.6 9 Noroeste 25 Oeste 0 922.6 0.3 50
2018-07-29 13:00:00 21.4 8 Noroeste 19 Oeste 0 922.6 0.5 50
2018-07-29 12:00:00 19.9 8 Noroeste 21 Noroeste 0 922.5 1 48
2018-07-29 11:00:00 17.8 10 Noroeste 26 Oeste 0 922.3 1 59
2018-07-29 10:00:00 16.6 9 Oeste 23 Oeste 0 922.1 0.4 63
2018-07-29 09:00:00 13.7 4 Este 12 Sur 0 921.5 0.2 76
2018-07-29 08:00:00 11.2 5 Noroeste 17 Oeste 0 921.3 0.4 85
2018-07-29 07:00:00 11.6 12 Oeste 24 Oeste 0 921.7 0.8 85
2018-07-29 06:00:00 12.5 8 Oeste 17 Noroeste 0 921.3 0.2 88
2018-07-29 05:00:00 12.6 7 Noroeste 19 Noroeste 0 920.9 -0.6 89
2018-07-29 04:00:00 13.4 7 Noroeste 14 Noroeste 0 920.9 -0.5 88
2018-07-29 03:00:00 13.7 8 Noroeste 20 Noroeste 0 921.1 -0.3 87
2018-07-29 02:00:00 14.8 7 Noroeste 21 Oeste 0 921.5 0.3 86
2018-07-29 01:00:00 15.1 8 Oeste 23 Oeste 0 921.4 0.7 86
2018-07-29 00:00:00 15.7 6 Oeste 24 Oeste 0 921.4 0.9 83
2018-07-28 23:00:00 17.1 12 Oeste 28 Sudoeste 0 921.2 0.9 78
2018-07-28 22:00:00 18.3 12 Oeste 28 Oeste 0 920.7 0.3 73
2018-07-28 21:00:00 19.7 9 Oeste 26 Oeste 0 920.5 -0.2 67
2018-07-28 20:00:00 22 13 Oeste 27 Noroeste 0 920.3 -0.6 57
2018-07-28 19:00:00 24.4 12 Noroeste 31 Oeste 0 920.4 -0.5 47
2018-07-28 18:00:00 25 11 Oeste 29 Oeste 0 920.7 -0.5 45
2018-07-28 17:00:00 25.3 10 Noroeste 27 Oeste 0 920.9 -0.5 49
2018-07-28 16:00:00 24.6 9 Oeste 26 Noroeste 0 920.9 -0.7 50
2018-07-28 15:00:00 24.1 11 Noroeste 24 Noroeste 0 921.2 -0.3 52
2018-07-28 14:00:00 23.1 7 Oeste 18 Noroeste 0 921.4 -0.2 54
2018-07-28 13:00:00 22 5 Norte 14 Norte 0 921.6 0.1 53
2018-07-28 12:00:00 21.5 4 Sudeste 11 Este 0 921.5 0.2 57
2018-07-28 11:00:00 19.1 5 Noroeste 12 Norte 0 921.6 0.5 66
2018-07-28 10:00:00 16.1 4 Noroeste 13 Oeste 0 921.5 0.6 78
2018-07-28 09:00:00 14.3 3 Sudeste 5 Sudeste 0 921.3 0.5 83
2018-07-28 08:00:00 13.5 2 Noroeste 7 Noroeste 0 921.1 0.1 85
2018-07-28 07:00:00 13.2 3 Noroeste 12 Noroeste 0 920.9 -0.4 86
2018-07-28 06:00:00 13.4 6 Oeste 11 Oeste 0 920.8 -0.7 86
2018-07-28 05:00:00 13.7 2 Oeste 8 Sudeste 0 921 -0.6 84
2018-07-28 04:00:00 13.7 3 Sudeste 6 Sudeste 0 921.3 -0.7 83
2018-07-28 03:00:00 13.8 2 Sudoeste 15 Oeste 0 921.5 -0.6 82
2018-07-28 02:00:00 13.4 5 Oeste 20 Oeste 0 921.6 0 83
2018-07-28 01:00:00 13.1 9 Oeste 22 Oeste 0 922 0.9 84
2018-07-28 00:00:00 14.1 8 Oeste 26 Oeste 0 922.1 1.6 80
2018-07-27 23:00:00 14.7 8 Oeste 17 Oeste 0 921.6 1.4 82
2018-07-27 22:00:00 15.9 7 Oeste 25 Noroeste 0 921.1 1.8 75
2018-07-27 21:00:00 18.2 12 Oeste 27 Oeste 0 920.5 1.2 67
2018-07-27 20:00:00 19.2 9 Oeste 32 Oeste 0 920.2 0.8 65
2018-07-27 19:00:00 21.3 13 Noroeste 29 Oeste 0 919.3 -0.1 60
2018-07-27 18:00:00 21.3 12 Oeste 35 Noroeste 0 919.3 -0.2 63
2018-07-27 17:00:00 23.1 10 Noroeste 28 Noroeste 0 919.4 -0.4 58
2018-07-27 16:00:00 22.9 6 Oeste 18 Noroeste 0 919.4 -0.5 57
2018-07-27 15:00:00 22.6 10 Oeste 21 Oeste 0 919.5 -0.7 57
2018-07-27 14:00:00 21.5 9 Oeste 24 Oeste 0 919.8 -0.4 63
2018-07-27 13:00:00 20.7 4 Oeste 12 Noroeste 0 919.9 -0.3 61
2018-07-27 12:00:00 20.2 6 Noroeste 18 Oeste 0 920.2 0.1 62
2018-07-27 11:00:00 18.6 8 Oeste 15 Oeste 0 920.2 0.2 69
2018-07-27 10:00:00 18.7 5 Oeste 16 Sudoeste 0 920.2 0.5 71
2018-07-27 09:00:00 15.6 4 Oeste 12 Oeste 0 920.1 0.5 86
2018-07-27 08:00:00 14.7 4 Noroeste 11 Oeste 0 920 0 91
2018-07-27 07:00:00 14.5 3 Oeste 12 Oeste 0 919.7 -0.5 91
2018-07-27 06:00:00 14.7 4 Oeste 15 Oeste 0 919.6 -0.9 91
2018-07-27 05:00:00 14.5 7 Oeste 14 Oeste 0 920 -0.7 93
2018-07-27 04:00:00 13.7 6 Oeste 12 Oeste 0 920.2 -1 91
2018-07-27 03:00:00 14.1 6 Oeste 17 Oeste 0 920.5 -1 90
2018-07-27 02:00:00 15 4 Noroeste 15 Noroeste 0 920.7 -1 87
2018-07-27 01:00:00 16.1 7 Oeste 18 Oeste 0 921.2 0.3 85
2018-07-27 00:00:00 17 7 Oeste 19 Oeste 0 921.5 0.9 80
2018-07-26 23:00:00 17.6 6 Oeste 13 Oeste 0 921.7 1.4 77
2018-07-26 22:00:00 19.2 5 Oeste 16 Oeste 0 920.9 0.5 71
2018-07-26 21:00:00 21.4 8 Oeste 18 Noroeste 0 920.6 0.3 62
2018-07-26 20:00:00 22.9 9 Oeste 23 Oeste 0 920.3 -0.1 55
2018-07-26 19:00:00 25.2 11 Oeste 30 Oeste 0 920.4 -0.1 48
2018-07-26 18:00:00 25.2 12 Oeste 27 Oeste 0 920.3 -0.3 48
2018-07-26 17:00:00 24.9 12 Noroeste 28 Oeste 0 920.4 -0.5 46
2018-07-26 16:00:00 24.5 12 Oeste 26 Oeste 0 920.5 -0.7 51
2018-07-26 15:00:00 24.1 9 Noroeste 21 Oeste 0 920.6 -0.8 53
2018-07-26 14:00:00 23.2 8 Noroeste 22 Oeste 0 920.9 -0.4 58
2018-07-26 13:00:00 22 8 Noroeste 17 Oeste 0 921.2 0.1 65
2018-07-26 12:00:00 19.4 6 Noroeste 16 Noroeste 0 921.4 0.6 77
2018-07-26 11:00:00 16.7 9 Noroeste 22 Oeste 0 921.3 0.9 87
2018-07-26 10:00:00 16.1 7 Oeste 17 Sudoeste 0 921.1 1.1 90
2018-07-26 09:00:00 16.1 6 Oeste 14 Sudoeste 0 920.8 0.9 90
2018-07-26 08:00:00 16.6 6 Oeste 15 Noroeste 0 920.4 0.2 89
2018-07-26 07:00:00 17.2 6 Oeste 12 Oeste 0 920 -0.3 89
2018-07-26 06:00:00 17.3 5 Oeste 12 Oeste 0 919.9 -0.5 89
2018-07-26 05:00:00 17.1 7 Oeste 16 Noroeste 0 920.2 -0.4 91
2018-07-26 04:00:00 17 7 Oeste 17 Oeste 0 920.3 -0.5 88
2018-07-26 03:00:00 17.5 7 Oeste 17 Oeste 0 920.4 -0.4 86
2018-07-26 02:00:00 17.9 7 Oeste 17 Oeste 0 920.6 -0.2 85
2018-07-26 01:00:00 18.3 7 Oeste 16 Oeste 0 920.8 0.5 85
2018-07-26 00:00:00 19.3 7 Oeste 21 Oeste 0 920.8 0.9 82
2018-07-25 23:00:00 20.3 8 Oeste 21 Oeste 0 920.8 1.2 76
2018-07-25 22:00:00 21.3 9 Oeste 23 Oeste 0 920.3 0.7 72
2018-07-25 21:00:00 23 10 Oeste 28 Oeste 0 919.9 0.2 65
2018-07-25 20:00:00 24.8 12 Oeste 31 Noroeste 0 919.6 -0.4 57
2018-07-25 19:00:00 27.5 11 Oeste 26 Oeste 0 919.6 -0.8 49
2018-07-25 18:00:00 27.2 9 Noroeste 24 Norte 0 919.7 -0.7 50
2018-07-25 17:00:00 27.9 9 Noroeste 24 Noroeste 0 920 -0.6 51
2018-07-25 16:00:00 27.6 9 Noroeste 22 Noroeste 0 920.4 -0.7 53
2018-07-25 15:00:00 27.2 9 Oeste 22 Oeste 0 920.4 -0.9 55
2018-07-25 14:00:00 25.6 8 Oeste 17 Noroeste 0 920.6 -1 58
2018-07-25 13:00:00 25.2 5 Nordeste 17 Noroeste 0 921.1 -0.7 58
2018-07-25 12:00:00 23.2 5 Este 14 Este 0 921.3 -0.3 64
2018-07-25 11:00:00 20.9 6 Sudeste 12 Noroeste 0 921.6 0.2 74
2018-07-25 10:00:00 17.5 4 Noroeste 9 Noroeste 0 921.8 0.6 86
2018-07-25 09:00:00 15.3 5 Noroeste 10 Noroeste 0 921.6 0.4 89
2018-07-25 08:00:00 15 6 Noroeste 10 Noroeste 0 921.4 0 90
2018-07-25 07:00:00 15.4 3 Noroeste 7 Noroeste 0 921.2 -0.4 92
2018-07-25 06:00:00 15.7 3 Oeste 9 Sudoeste 0 921.2 -0.5 91
2018-07-25 05:00:00 15.6 3 Sudoeste 9 Oeste 0 921.4 -0.5 89
2018-07-25 04:00:00 15.7 3 Noroeste 10 Noroeste 0 921.6 -0.4 92
2018-07-25 03:00:00 15.3 6 Noroeste 14 Oeste 0 921.7 -0.5 90
2018-07-25 02:00:00 16.4 7 Oeste 19 Noroeste 0 921.9 -0.1 89
2018-07-25 01:00:00 17 8 Oeste 21 Noroeste 0 922 0.5 88
2018-07-25 00:00:00 17.5 9 Oeste 22 Oeste 0 922.2 1.2 87
2018-07-24 23:00:00 18 9 Oeste 20 Sudoeste 0 922 1.3 85
2018-07-24 22:00:00 18.9 9 Oeste 18 Oeste 0 921.5 0.9 80
2018-07-24 21:00:00 20.6 9 Oeste 28 Noroeste 0 921 0.3 73
2018-07-24 20:00:00 22.4 11 Noroeste 26 Oeste 0 920.7 -0.2 64
2018-07-24 19:00:00 24.6 12 Oeste 26 Oeste 0 920.6 -0.5 56
2018-07-24 18:00:00 23.7 12 Oeste 28 Oeste 0 920.7 -0.5 60
2018-07-24 17:00:00 23.9 12 Noroeste 25 Noroeste 0 920.9 -0.4 60
2018-07-24 16:00:00 23.7 10 Noroeste 24 Noroeste 0 921.1 -0.3 62
2018-07-24 15:00:00 23.3 10 Oeste 21 Noroeste 0 921.2 -0.3 63
2018-07-24 14:00:00 22.4 8 Oeste 19 Oeste 0 921.3 -0.2 65
2018-07-24 13:00:00 21.2 8 Oeste 19 Oeste 0 921.4 0 69
2018-07-24 12:00:00 19.8 6 Oeste 15 Noroeste 0 921.5 0.6 77
2018-07-24 11:00:00 18.3 7 Noroeste 17 Oeste 0 921.5 0.8 84
2018-07-24 10:00:00 16.8 8 Oeste 17 Oeste 0 921.4 1.1 90
2018-07-24 09:00:00 16.6 6 Oeste 12 Oeste 0 920.9 0.8 91
2018-07-24 08:00:00 16.4 4 Noroeste 9 Norte 0 920.7 0.3 91
2018-07-24 07:00:00 16.5 5 Oeste 12 Oeste 0 920.3 0 91
2018-07-24 06:00:00 16.4 3 Noroeste 19 Noroeste 0 920.1 -0.5 92
2018-07-24 05:00:00 17 8 Noroeste 23 Oeste 0 920.4 -0.6 90
2018-07-24 04:00:00 17.6 8 Oeste 18 Oeste 0 920.3 -0.9 88
2018-07-24 03:00:00 17.9 6 Oeste 15 Oeste 0 920.6 -0.6 88
2018-07-24 02:00:00 18.3 9 Oeste 19 Oeste 0 921 -0.4 86
2018-07-24 01:00:00 18.8 8 Oeste 22 Noroeste 0 921.2 0.3 85
2018-07-24 00:00:00 19.3 9 Oeste 21 Sudoeste 0 921.2 1 83
2018-07-23 23:00:00 20.1 9 Oeste 26 Oeste 0 921.4 1.5 75
2018-07-23 22:00:00 21.8 12 Oeste 25 Oeste 0 920.9 1 66
2018-07-23 21:00:00 24.1 12 Oeste 28 Oeste 0 920.2 0.3 53
2018-07-23 20:00:00 26.3 11 Oeste 28 Oeste 0 919.9 -0.1 47
2018-07-23 19:00:00 30.4 8 Oeste 25 Oeste 0 919.9 -0.4 29
2018-07-23 18:00:00 30.3 6 Oeste 22 Sudoeste 0 919.9 -0.4 30
2018-07-23 17:00:00 30.1 11 Sudoeste 31 Oeste 0 920 -0.5 27
2018-07-23 16:00:00 30 9 Oeste 25 Sudoeste 0 920.3 -0.6 29
2018-07-23 15:00:00 29.7 9 Sudoeste 28 Sudoeste 0 920.3 -0.8 28
2018-07-23 14:00:00 27.6 10 Sudeste 22 Este 0 920.5 -0.8 41
2018-07-23 13:00:00 26.3 4 Sudeste 17 Este 0 920.9 -0.5 43
2018-07-23 12:00:00 24 8 Este 17 Nordeste 0 921.1 -0.3 54
2018-07-23 11:00:00 21.6 10 Este 20 Nordeste 0 921.3 0 57
2018-07-23 10:00:00 19.9 9 Este 20 Este 0 921.4 0.1 65
2018-07-23 09:00:00 18.3 5 Este 13 Sudeste 0 921.4 0.1 73
2018-07-23 08:00:00 15.1 3 Este 10 Nordeste 0 921.3 -0.2 85
2018-07-23 07:00:00 14.3 5 Nordeste 8 Nordeste 0 921.3 -0.3 87
2018-07-23 06:00:00 14.1 2 Norte 10 Nordeste 0 921.3 -0.4 88
2018-07-23 05:00:00 13.7 6 Noroeste 10 Noroeste 0 921.5 -0.6 89
2018-07-23 04:00:00 14.4 4 Norte 10 Noroeste 0 921.6 -0.4 88
2018-07-23 03:00:00 15 7 Noroeste 13 Noroeste 0 921.7 -0.2 87
2018-07-23 02:00:00 15.6 8 Noroeste 14 Noroeste 0 922.1 0.2 87
2018-07-23 01:00:00 16.4 7 Noroeste 17 Noroeste 0 922 0.7 85
2018-07-23 00:00:00 17.5 6 Noroeste 16 Noroeste 0 921.9 1.1 83
2018-07-22 23:00:00 18.9 8 Oeste 19 Oeste 0 921.9 1.4 81
2018-07-22 22:00:00 20.4 8 Oeste 18 Sudoeste 0 921.3 0.9 74
2018-07-22 21:00:00 22.6 5 Oeste 17 Norte 0 920.8 0.3 59
2018-07-22 20:00:00 24.3 8 Noroeste 17 Noroeste 0 920.5 -0.3 50
2018-07-22 19:00:00 27 9 Noroeste 20 Oeste 0 920.4 -0.7 41
2018-07-22 18:00:00 27 7 Noroeste 19 Norte 0 920.5 -0.8 41
2018-07-22 17:00:00 25.9 5 Nordeste 17 Norte 0 920.8 -0.8 42
2018-07-22 16:00:00 26 7 Norte 16 Noroeste 0 921.1 -0.7 43
2018-07-22 15:00:00 24.4 5 Sudeste 20 Este 0 921.3 -0.5 42
2018-07-22 14:00:00 23.4 8 Este 22 Este 0 921.6 -0.2 47
2018-07-22 13:00:00 22.3 8 Nordeste 22 Este 0 921.8 -0.1 55
2018-07-22 12:00:00 20.5 11 Este 19 Este 0 921.8 0 62
2018-07-22 11:00:00 18.3 10 Este 17 Este 0 921.8 0.3 71
2018-07-22 10:00:00 16.3 7 Este 13 Nordeste 0 921.9 0.6 83
2018-07-22 09:00:00 14.1 5 Este 10 Este 0 921.8 0.6 94
2018-07-22 08:00:00 12.5 3 Sudeste 8 Sur 0 921.5 0.1 95
2018-07-22 07:00:00 11.3 3 Sudoeste 5 Oeste 0 921.3 -0.3 93
2018-07-22 06:00:00 11.7 3 Noroeste 10 Oeste 0 921.2 -0.7 93
2018-07-22 05:00:00 12.1 3 Oeste 7 Oeste 0 921.4 -0.7 92
2018-07-22 04:00:00 12.6 4 Oeste 11 Oeste 0 921.6 -0.7 92
2018-07-22 03:00:00 13.4 6 Oeste 14 Oeste 0 921.9 -0.5 92
2018-07-22 02:00:00 13.5 7 Oeste 15 Oeste 0 922.1 -0.3 90
2018-07-22 01:00:00 14.3 10 Oeste 18 Oeste 0 922.3 0.1 88
2018-07-22 00:00:00 15.5 7 Oeste 15 Oeste 0 922.4 0.5 84
2018-07-21 23:00:00 16 6 Oeste 14 Oeste 0 922.4 0.4 81
2018-07-21 22:00:00 16.8 5 Noroeste 14 Noroeste 0 922.2 0.1 77
2018-07-21 21:00:00 17.7 5 Oeste 16 Oeste 0 921.9 -0.4 74
2018-07-21 20:00:00 18.4 7 Oeste 19 Noroeste 0 922 -0.6 72
2018-07-21 19:00:00 18.8 7 Oeste 22 Noroeste 0 922.1 -0.7 69
2018-07-21 18:00:00 20.2 8 Oeste 24 Oeste 0 922.3 -0.5 62
2018-07-21 17:00:00 21.2 9 Oeste 22 Noroeste 0 922.6 -0.6 53
2018-07-21 16:00:00 21.8 10 Oeste 23 Noroeste 0 922.8 -0.7 54
2018-07-21 15:00:00 21.2 8 Noroeste 21 Oeste 0 922.8 -0.5 53
2018-07-21 14:00:00 21.3 6 Oeste 22 Oeste 0 923.2 -0.3 46
2018-07-21 13:00:00 19.9 8 Oeste 18 Oeste 0 923.5 0 49
2018-07-21 12:00:00 17.7 3 Noroeste 10 Noroeste 0 923.3 0 54
2018-07-21 11:00:00 15.4 4 Este 6 Sudeste 0 923.5 0.4 80
2018-07-21 10:00:00 13 3 Este 10 Oeste 0 923.5 0.4 86
2018-07-21 09:00:00 11.5 5 Oeste 14 Oeste 0 923.3 0.5 88
2018-07-21 08:00:00 9.7 7 Noroeste 15 Oeste 0 923.1 0.1 95
2018-07-21 07:00:00 9.1 5 Oeste 17 Oeste 0 923.1 -0.3 92
2018-07-21 06:00:00 9.3 6 Oeste 21 Noroeste 0 922.8 -1 91
2018-07-21 05:00:00 9.8 8 Noroeste 21 Oeste 0 923 -0.8 92
2018-07-21 04:00:00 10 8 Noroeste 18 Noroeste 0 923.4 -0.8 90
2018-07-21 03:00:00 10.9 8 Oeste 17 Oeste 0 923.8 -0.6 89
2018-07-21 02:00:00 11.6 8 Oeste 18 Noroeste 0 923.8 -0.3 88
2018-07-21 01:00:00 12.3 10 Oeste 21 Oeste 0 924.2 0.8 86
2018-07-21 00:00:00 13.3 10 Oeste 26 Oeste 0 924.4 1 84
2018-07-20 23:00:00 13.6 8 Oeste 20 Oeste 0 924.1 1 82
2018-07-20 22:00:00 15.3 7 Sudoeste 21 Noroeste 0 923.4 0.2 76
2018-07-20 21:00:00 16.9 8 Oeste 21 Oeste 0 923.4 0.2 69
2018-07-20 20:00:00 18 11 Oeste 28 Sudoeste 0 923.1 -0.2 65
2018-07-20 19:00:00 20.3 12 Oeste 32 Oeste 0 923.2 0 59
2018-07-20 18:00:00 20.6 16 Oeste 35 Oeste 0 923.2 -0.3 58
2018-07-20 17:00:00 20.2 13 Oeste 40 Oeste 0 923.3 -0.4 62
2018-07-20 16:00:00 20.7 14 Oeste 31 Oeste 0 923.2 -0.6 60
2018-07-20 15:00:00 21 13 Oeste 30 Oeste 0 923.5 -0.3 58
2018-07-20 14:00:00 20.4 14 Oeste 31 Oeste 0 923.7 0 65
2018-07-20 13:00:00 19.8 12 Oeste 27 Oeste 0 923.8 0.4 67
2018-07-20 12:00:00 17.8 8 Oeste 21 Oeste 0 923.8 0.5 75
2018-07-20 11:00:00 16.7 10 Oeste 22 Noroeste 0 923.7 0.8 78
2018-07-20 10:00:00 15.1 8 Oeste 18 Oeste 0 923.4 0.9 87
2018-07-20 09:00:00 13.7 8 Oeste 17 Oeste 0 923.3 0.9 92
2018-07-20 08:00:00 13.7 6 Oeste 18 Oeste 0 922.9 0.2 93
2018-07-20 07:00:00 13.6 8 Oeste 16 Noroeste 0 922.5 -0.3 93
2018-07-20 06:00:00 13.8 7 Oeste 17 Oeste 0 922.4 -0.7 93
2018-07-20 05:00:00 13.9 9 Oeste 19 Oeste 0 922.7 -0.6 92
2018-07-20 04:00:00 14 9 Oeste 19 Oeste 0 922.8 -0.8 92
2018-07-20 03:00:00 14.2 8 Sudoeste 16 Oeste 0 923.1 -0.6 92
2018-07-20 02:00:00 14.4 7 Oeste 22 Oeste 0 923.3 -0.1 92
2018-07-20 01:00:00 14.8 8 Oeste 19 Oeste 0 923.6 0.6 91
2018-07-20 00:00:00 15.1 9 Oeste 23 Oeste 0 923.7 0.8 89